createdAt,value
2023-05-15T00:00:37.788Z,32.90
2023-05-15T00:03:07.546Z,33.55
2023-05-15T00:05:37.490Z,39.45
2023-05-15T00:08:07.271Z,35.70
2023-05-15T00:10:37.376Z,32.83
2023-05-15T00:13:07.580Z,32.33
2023-05-15T00:15:37.155Z,28.30
2023-05-15T00:18:06.624Z,33.10
2023-05-15T00:20:36.341Z,30.77
2023-05-15T00:23:05.684Z,36.00
2023-05-15T00:25:35.107Z,35.55
2023-05-15T00:28:04.526Z,32.38
2023-05-15T00:30:34.037Z,32.03
2023-05-15T00:33:03.401Z,29.20
2023-05-15T00:35:34.189Z,40.92
2023-05-15T00:38:03.804Z,32.70
2023-05-15T00:40:34.077Z,36.00
2023-05-15T00:43:04.184Z,37.17
2023-05-15T00:45:33.917Z,34.38
2023-05-15T00:48:03.431Z,34.10
2023-05-15T00:50:34.289Z,37.35
2023-05-15T00:53:04.860Z,42.75
2023-05-15T00:55:35.456Z,41.35
2023-05-15T00:58:05.298Z,45.85
2023-05-15T01:00:35.066Z,42.70
2023-05-15T01:03:06.621Z,44.85
2023-05-15T01:05:35.984Z,43.25
2023-05-15T01:08:24.159Z,43.15
2023-05-15T01:10:54.398Z,45.35
2023-05-15T01:13:24.340Z,45.40
2023-05-15T01:15:55.434Z,43.23
2023-05-15T01:18:26.197Z,42.70
2023-05-15T01:21:04.961Z,42.98
2023-05-15T01:23:52.371Z,43.17
2023-05-15T01:26:42.605Z,276.95
2023-05-15T01:29:31.813Z,46.95
2023-05-15T01:32:07.415Z,43.92
2023-05-15T01:34:48.971Z,46.68
2023-05-15T01:37:20.105Z,46.28
2023-05-15T01:39:52.588Z,49.93
2023-05-15T01:42:22.237Z,51.48
2023-05-15T01:44:54.348Z,47.17
2023-05-15T01:47:27.460Z,48.35
2023-05-15T01:49:57.114Z,48.75
2023-05-15T01:52:29.950Z,46.23
2023-05-15T01:54:59.932Z,47.33
2023-05-15T01:57:31.044Z,45.48
2023-05-15T02:00:01.406Z,48.90
2023-05-15T02:02:32.279Z,49.53
2023-05-15T02:05:03.354Z,51.58
2023-05-15T02:07:33.520Z,50.70
2023-05-15T02:10:04.062Z,47.85
2023-05-15T02:12:34.046Z,52.20
2023-05-15T02:15:05.465Z,53.65
2023-05-15T02:17:34.829Z,61.33
2023-05-15T02:20:06.475Z,55.23
2023-05-15T02:22:36.621Z,58.20
2023-05-15T02:25:06.539Z,56.53
2023-05-15T02:27:57.428Z,58.10
2023-05-15T02:30:47.381Z,54.18
2023-05-15T02:33:25.780Z,59.40
2023-05-15T02:36:00.812Z,58.08
2023-05-15T02:38:36.037Z,57.33
2023-05-15T02:41:06.576Z,56.53
2023-05-15T02:43:38.652Z,55.48
2023-05-15T02:46:09.072Z,54.30
2023-05-15T02:48:42.770Z,58.30
2023-05-15T02:51:12.527Z,57.95
2023-05-15T02:53:42.827Z,58.87
2023-05-15T02:56:12.505Z,54.33
2023-05-15T02:58:42.163Z,62.43
2023-05-15T03:01:11.500Z,52.53
2023-05-15T03:03:40.768Z,56.92
2023-05-15T03:06:10.419Z,57.35
2023-05-15T03:08:39.739Z,50.75
2023-05-15T03:11:09.418Z,57.50
2023-05-15T03:13:38.767Z,57.15
2023-05-15T03:16:08.466Z,54.90
2023-05-15T03:18:37.817Z,55.40
2023-05-15T03:21:07.369Z,54.63
2023-05-15T03:23:37.823Z,52.30
2023-05-15T03:26:07.886Z,52.85
2023-05-15T03:28:37.238Z,58.25
2023-05-15T03:31:08.393Z,54.93
2023-05-15T03:33:38.619Z,56.65
2023-05-15T03:36:08.435Z,56.53
2023-05-15T03:38:38.104Z,58.17
2023-05-15T03:41:09.186Z,57.35
2023-05-15T03:43:38.670Z,57.90
2023-05-15T03:46:08.088Z,61.92
2023-05-15T03:48:37.653Z,61.75
2023-05-15T03:51:07.746Z,55.90
2023-05-15T03:53:37.135Z,59.58
2023-05-15T03:56:06.589Z,60.78
2023-05-15T03:58:36.323Z,53.28
2023-05-15T04:01:05.977Z,58.08
2023-05-15T04:03:35.367Z,54.63
2023-05-15T04:06:05.093Z,51.13
2023-05-15T04:08:34.387Z,49.15
2023-05-15T04:11:03.701Z,55.33
2023-05-15T04:13:33.018Z,55.63
2023-05-15T04:16:02.518Z,54.42
2023-05-15T04:18:32.442Z,60.73
2023-05-15T04:21:01.967Z,57.93
2023-05-15T04:23:31.247Z,56.18
2023-05-15T04:26:01.428Z,59.38
2023-05-15T04:28:31.753Z,62.62
2023-05-15T04:31:01.529Z,56.33
2023-05-15T04:33:30.910Z,59.75
2023-05-15T04:36:00.201Z,50.52
2023-05-15T04:38:29.547Z,50.43
2023-05-15T04:40:58.870Z,51.15
2023-05-15T04:43:28.197Z,51.15
2023-05-15T04:45:57.548Z,54.13
2023-05-15T04:48:26.891Z,56.02
2023-05-15T04:50:56.369Z,54.35
2023-05-15T04:53:25.663Z,53.33
2023-05-15T04:55:54.973Z,56.80
2023-05-15T04:58:24.251Z,50.75
2023-05-15T05:00:53.834Z,51.42
2023-05-15T05:03:23.186Z,45.75
2023-05-15T05:05:52.909Z,50.98
2023-05-15T05:08:22.252Z,51.28
2023-05-15T05:10:57.432Z,53.63
2023-05-15T05:13:27.086Z,51.42
2023-05-15T05:15:56.694Z,49.10
2023-05-15T05:18:27.043Z,48.28
2023-05-15T05:21:03.562Z,50.05
2023-05-15T05:23:33.344Z,46.55
2023-05-15T05:26:04.168Z,44.98
2023-05-15T05:28:33.772Z,42.53
2023-05-15T05:31:03.366Z,38.15
2023-05-15T05:33:33.073Z,39.95
2023-05-15T05:36:02.426Z,37.10
2023-05-15T05:38:32.487Z,37.98
2023-05-15T05:41:01.770Z,36.38
2023-05-15T05:43:32.620Z,38.17
2023-05-15T05:46:02.506Z,35.43
2023-05-15T05:48:31.986Z,37.65
2023-05-15T05:51:01.932Z,34.78
2023-05-15T05:53:31.246Z,38.05
2023-05-15T05:56:01.487Z,35.78
2023-05-15T05:58:31.156Z,36.20
2023-05-15T06:01:01.399Z,35.10
2023-05-15T06:03:31.254Z,36.40
2023-05-15T06:06:01.232Z,33.63
2023-05-15T06:08:30.690Z,32.88
2023-05-15T06:11:00.154Z,32.70
2023-05-15T06:13:29.710Z,33.48
2023-05-15T06:15:59.262Z,33.63
2023-05-15T06:18:28.604Z,33.13
2023-05-15T06:21:00.017Z,32.23
2023-05-15T06:23:29.311Z,29.52
2023-05-15T06:25:58.656Z,27.40
2023-05-15T06:28:28.210Z,25.08
2023-05-15T06:30:57.839Z,27.48
2023-05-15T06:33:27.327Z,24.00
2023-05-15T06:35:57.264Z,24.23
2023-05-15T06:38:26.545Z,28.57
2023-05-15T06:40:55.917Z,28.57
2023-05-15T06:43:25.622Z,28.45
2023-05-15T06:45:55.128Z,25.17
2023-05-15T06:48:24.874Z,28.35
2023-05-15T06:50:54.508Z,27.93
2023-05-15T06:53:24.111Z,25.97
2023-05-15T06:55:53.427Z,25.77
2023-05-15T06:58:22.695Z,26.50
2023-05-15T07:00:53.491Z,27.80
2023-05-15T07:03:23.146Z,26.73
2023-05-15T07:05:52.767Z,26.37
2023-05-15T07:08:22.152Z,25.68
2023-05-15T07:10:51.849Z,29.52
2023-05-15T07:13:22.028Z,27.40
2023-05-15T07:15:51.582Z,24.72
2023-05-15T07:18:21.225Z,25.52
2023-05-15T07:20:50.659Z,26.25
2023-05-15T07:23:19.937Z,27.45
2023-05-15T07:25:50.262Z,28.85
2023-05-15T07:28:19.537Z,26.40
2023-05-15T07:30:49.502Z,28.92
2023-05-15T07:33:18.812Z,28.07
2023-05-15T07:35:48.872Z,26.23
2023-05-15T07:38:18.938Z,26.65
2023-05-15T07:40:48.593Z,26.85
2023-05-15T07:43:18.035Z,27.25
2023-05-15T07:45:47.534Z,30.00
2023-05-15T07:48:18.547Z,33.58
2023-05-15T07:50:50.668Z,35.00
2023-05-15T07:53:20.439Z,35.98
2023-05-15T07:55:50.005Z,36.80
2023-05-15T07:58:19.453Z,38.50
2023-05-15T08:00:48.766Z,37.95
2023-05-15T08:03:18.212Z,36.93
2023-05-15T08:05:47.844Z,39.00
2023-05-15T08:08:17.182Z,43.75
2023-05-15T08:10:47.008Z,40.55
2023-05-15T08:13:16.539Z,39.98
2023-05-15T08:15:45.919Z,42.05
2023-05-15T08:18:15.511Z,42.17
2023-05-15T08:20:44.833Z,39.35
2023-05-15T08:23:14.115Z,42.17
2023-05-15T08:25:43.445Z,42.30
2023-05-15T08:28:14.754Z,44.60
2023-05-15T08:30:44.125Z,45.10
2023-05-15T08:33:13.455Z,43.38
2023-05-15T08:35:43.273Z,42.58
2023-05-15T08:38:12.937Z,43.00
2023-05-15T08:40:43.909Z,37.17
2023-05-15T08:43:19.280Z,43.58
2023-05-15T08:45:50.158Z,38.58
2023-05-15T08:48:21.432Z,42.20
2023-05-15T08:50:51.232Z,39.08
2023-05-15T08:53:20.863Z,38.75
2023-05-15T08:55:50.212Z,37.60
2023-05-15T08:58:22.022Z,37.38
2023-05-15T09:00:51.466Z,36.70
2023-05-15T09:03:22.802Z,36.30
2023-05-15T09:05:53.895Z,42.40
2023-05-15T09:08:24.024Z,35.20
2023-05-15T09:10:54.920Z,32.75
2023-05-15T09:13:24.522Z,33.67
2023-05-15T09:15:53.876Z,38.55
2023-05-15T09:18:24.126Z,33.40
2023-05-15T09:20:55.984Z,30.97
2023-05-15T09:23:29.070Z,32.67
2023-05-15T09:25:59.380Z,35.35
2023-05-15T09:28:34.172Z,35.48
2023-05-15T09:31:05.429Z,35.75
2023-05-15T09:33:37.634Z,34.05
2023-05-15T09:36:08.360Z,36.23
2023-05-15T09:38:42.919Z,36.13
2023-05-15T09:41:12.234Z,37.75
2023-05-15T09:43:43.011Z,37.83
2023-05-15T09:49:32.653Z,40.75
2023-05-15T09:52:02.584Z,42.15
2023-05-15T09:54:33.083Z,45.80
2023-05-15T09:57:15.463Z,47.03
2023-05-15T09:59:47.258Z,43.00
2023-05-15T10:02:35.258Z,47.25
2023-05-15T10:05:06.251Z,51.37
2023-05-15T10:07:36.828Z,46.35
2023-05-15T10:10:06.983Z,48.92
2023-05-15T10:12:37.008Z,53.95
2023-05-15T10:15:07.215Z,47.85
2023-05-15T10:17:37.168Z,53.52
2023-05-15T10:20:07.668Z,58.02
2023-05-15T10:22:39.602Z,55.10
2023-05-15T10:25:23.876Z,51.40
2023-05-15T10:27:53.564Z,49.53
2023-05-15T10:30:24.004Z,51.33
2023-05-15T10:32:53.678Z,56.35
2023-05-15T10:35:23.692Z,51.55
2023-05-15T10:37:54.187Z,51.02
2023-05-15T10:40:23.848Z,53.75
2023-05-15T10:42:53.921Z,50.88
2023-05-15T10:45:23.764Z,49.58
2023-05-15T10:47:54.303Z,49.70
2023-05-15T10:50:23.846Z,46.10
2023-05-15T10:52:53.746Z,48.15
2023-05-15T10:55:23.973Z,47.50
2023-05-15T10:57:54.924Z,51.35
2023-05-15T11:00:27.459Z,51.53
2023-05-15T11:02:58.750Z,47.50
2023-05-15T11:05:29.480Z,46.23
2023-05-15T11:08:21.648Z,47.20
2023-05-15T11:10:51.525Z,44.58
2023-05-15T11:13:21.461Z,37.28
2023-05-15T11:15:51.305Z,36.75
2023-05-15T11:18:21.939Z,35.75
2023-05-15T11:20:54.449Z,34.40
2023-05-15T11:23:24.344Z,29.52
2023-05-15T11:26:01.917Z,30.32
2023-05-15T11:28:31.672Z,30.32
2023-05-15T11:31:03.615Z,31.07
2023-05-15T11:33:33.102Z,32.20
2023-05-15T11:36:03.121Z,28.07
2023-05-15T11:38:35.577Z,28.15
2023-05-15T11:41:06.784Z,26.45
2023-05-15T11:43:39.244Z,25.85
2023-05-15T11:46:12.680Z,27.95
2023-05-15T11:51:45.000Z,26.77
2023-05-15T11:54:15.106Z,26.00
2023-05-15T11:56:45.632Z,25.92
2023-05-15T11:59:15.454Z,26.20
2023-05-15T12:01:49.362Z,31.65
2023-05-15T12:04:20.359Z,31.62
2023-05-15T12:06:49.871Z,33.78
2023-05-15T12:09:23.656Z,28.27
2023-05-15T12:11:54.439Z,31.97
2023-05-15T12:14:31.232Z,30.12
2023-05-15T12:17:04.792Z,26.75
2023-05-15T12:19:35.792Z,23.38
2023-05-15T12:22:08.402Z,22.17
2023-05-15T12:27:09.549Z,18.30
2023-05-15T12:29:39.846Z,19.90
2023-05-15T12:32:09.632Z,18.62
2023-05-15T12:34:39.517Z,17.15
2023-05-15T12:37:12.116Z,19.82
2023-05-15T12:42:26.348Z,11.83
2023-05-15T12:44:56.470Z,10.50
2023-05-15T12:47:27.997Z,8.85
2023-05-15T12:50:00.539Z,6.72
2023-05-15T12:52:30.590Z,7.22
2023-05-15T12:55:01.842Z,6.03
2023-05-15T12:57:31.359Z,8.48
2023-05-15T13:00:01.784Z,10.08
2023-05-15T13:02:31.372Z,11.45
2023-05-15T13:05:03.920Z,8.75
2023-05-15T13:07:33.347Z,8.10
2023-05-15T13:10:09.923Z,7.03
2023-05-15T13:12:46.878Z,7.35
2023-05-15T13:15:40.697Z,6.25
2023-05-15T13:18:15.181Z,6.83
2023-05-15T13:20:46.964Z,6.28
2023-05-15T13:23:23.618Z,6.73
2023-05-15T13:25:52.887Z,6.70
2023-05-15T13:28:22.208Z,6.70
2023-05-15T13:30:51.837Z,6.60
2023-05-15T13:33:21.164Z,7.25
2023-05-15T13:35:52.924Z,9.95
2023-05-15T13:38:22.230Z,10.30
2023-05-15T13:40:51.576Z,8.60
2023-05-15T13:43:21.110Z,9.10
2023-05-15T13:45:50.767Z,8.18
2023-05-15T13:48:20.073Z,9.10
2023-05-15T13:50:49.642Z,7.50
2023-05-15T13:53:19.081Z,4.90
2023-05-15T13:55:48.784Z,7.85
2023-05-15T13:58:18.216Z,6.28
2023-05-15T14:00:49.289Z,10.13
2023-05-15T14:03:19.531Z,6.85
2023-05-15T14:05:48.858Z,7.87
2023-05-15T14:08:18.539Z,7.55
2023-05-15T14:10:47.797Z,13.22
2023-05-15T14:13:17.439Z,8.95
2023-05-15T14:15:46.752Z,9.33
2023-05-15T14:18:16.395Z,7.70
2023-05-15T14:20:45.760Z,8.70
2023-05-15T14:23:15.989Z,11.15
2023-05-15T14:25:45.271Z,10.93
2023-05-15T14:28:14.663Z,6.62
2023-05-15T14:30:43.934Z,11.38
2023-05-15T14:33:13.678Z,10.43
2023-05-15T14:35:43.026Z,9.08
2023-05-15T14:38:12.452Z,7.12
2023-05-15T14:40:43.081Z,7.12
2023-05-15T14:43:12.588Z,5.08
2023-05-15T14:45:41.922Z,5.55
2023-05-15T14:48:11.818Z,4.87
2023-05-15T14:50:41.786Z,5.53
2023-05-15T14:53:11.222Z,4.17
2023-05-15T14:55:40.508Z,4.15
2023-05-15T14:58:11.555Z,3.37
2023-05-15T15:00:41.028Z,4.60
2023-05-15T15:03:11.156Z,7.17
2023-05-15T15:05:41.094Z,4.40
2023-05-15T15:08:11.648Z,3.42
2023-05-15T15:10:43.786Z,3.60
2023-05-15T15:13:14.041Z,4.90
2023-05-15T15:15:43.934Z,6.12
2023-05-15T15:18:13.490Z,5.33
2023-05-15T15:20:43.088Z,5.58
2023-05-15T15:23:12.386Z,4.80
2023-05-15T15:25:41.950Z,4.37
2023-05-15T15:28:11.357Z,4.62
2023-05-15T15:30:40.920Z,6.30
2023-05-15T15:33:10.292Z,4.10
2023-05-15T15:35:40.291Z,4.75
2023-05-15T15:38:11.191Z,4.72
2023-05-15T15:40:41.833Z,4.20
2023-05-15T15:43:11.154Z,4.45
2023-05-15T15:45:41.206Z,6.25
2023-05-15T15:48:10.566Z,5.62
2023-05-15T15:50:40.035Z,8.00
2023-05-15T15:53:09.481Z,5.00
2023-05-15T15:55:39.240Z,4.42
2023-05-15T15:58:08.499Z,5.70
2023-05-15T16:00:38.968Z,4.33
2023-05-15T16:03:08.575Z,4.00
2023-05-15T16:05:38.355Z,5.35
2023-05-15T16:08:07.778Z,5.37
2023-05-15T16:10:37.155Z,5.10
2023-05-15T16:13:06.985Z,4.05
2023-05-15T16:15:36.412Z,5.97
2023-05-15T16:18:05.926Z,4.12
2023-05-15T16:20:35.532Z,3.80
2023-05-15T16:23:04.841Z,5.58
2023-05-15T16:25:34.164Z,8.93
2023-05-15T16:28:03.810Z,7.30
2023-05-15T16:30:47.176Z,10.88
2023-05-15T16:33:05.166Z,8.17
2023-05-15T16:35:36.326Z,8.15
2023-05-15T16:38:06.539Z,6.17
2023-05-15T16:40:35.822Z,4.92
2023-05-15T16:43:05.222Z,5.90
2023-05-15T16:45:34.558Z,3.92
2023-05-15T16:48:04.183Z,5.65
2023-05-15T16:50:36.102Z,5.25
2023-05-15T16:53:05.858Z,5.22
2023-05-15T16:55:35.331Z,5.92
2023-05-15T16:58:04.629Z,4.72
2023-05-15T17:00:33.956Z,4.05
2023-05-15T17:03:04.577Z,4.87
2023-05-15T17:05:34.580Z,3.55
2023-05-15T17:08:03.932Z,3.85
2023-05-15T17:10:33.737Z,5.65
2023-05-15T17:13:03.082Z,4.30
2023-05-15T17:15:32.423Z,4.17
2023-05-15T17:18:01.762Z,4.42
2023-05-15T17:20:31.121Z,7.00
2023-05-15T17:23:00.430Z,4.95
2023-05-15T17:25:29.722Z,4.28
2023-05-15T17:27:59.064Z,7.62
2023-05-15T17:30:28.794Z,5.35
2023-05-15T17:33:00.548Z,7.97
2023-05-15T17:35:32.798Z,9.33
2023-05-15T17:38:01.436Z,8.28
2023-05-15T17:40:31.011Z,9.40
2023-05-15T17:43:00.520Z,6.47
2023-05-15T17:45:29.917Z,7.25
2023-05-15T17:48:01.079Z,7.42
2023-05-15T17:50:30.943Z,10.23
2023-05-15T17:53:00.663Z,10.20
2023-05-15T17:55:30.156Z,10.43
2023-05-15T17:57:59.487Z,7.10
2023-05-15T18:00:29.062Z,10.90
2023-05-15T18:02:58.539Z,11.85
2023-05-15T18:05:28.465Z,9.13
2023-05-15T18:07:59.702Z,12.63
2023-05-15T18:10:29.074Z,6.78
2023-05-15T18:12:59.619Z,9.65
2023-05-15T18:15:30.690Z,8.55
2023-05-15T18:18:00.524Z,10.90
2023-05-15T18:20:30.075Z,5.42
2023-05-15T18:22:59.493Z,10.98
2023-05-15T18:25:28.973Z,8.38
2023-05-15T18:27:58.629Z,7.22
2023-05-15T18:30:28.178Z,11.35
2023-05-15T18:32:58.539Z,5.10
2023-05-15T18:35:28.086Z,9.60
2023-05-15T18:37:57.869Z,9.25
2023-05-15T18:40:27.284Z,9.28
2023-05-15T18:42:57.015Z,9.33
2023-05-15T18:45:27.070Z,8.18
2023-05-15T18:47:57.104Z,7.42
2023-05-15T18:50:26.789Z,7.03
2023-05-15T18:52:56.384Z,11.25
2023-05-15T18:55:27.690Z,3.92
2023-05-15T18:57:57.766Z,7.25
2023-05-15T19:00:38.083Z,11.85
2023-05-15T19:02:58.666Z,10.03
2023-05-15T19:05:28.336Z,10.00
2023-05-15T19:07:57.702Z,7.62
2023-05-15T19:10:28.996Z,16.60
2023-05-15T19:12:58.967Z,10.63
2023-05-15T19:15:28.557Z,10.88
2023-05-15T19:17:57.944Z,8.25
2023-05-15T19:20:28.019Z,7.45
2023-05-15T19:22:57.555Z,14.55
2023-05-15T19:25:30.065Z,14.00
2023-05-15T19:27:59.355Z,8.95
2023-05-15T19:30:28.920Z,9.78
2023-05-15T19:32:58.252Z,7.67
2023-05-15T19:35:28.358Z,8.78
2023-05-15T19:37:57.840Z,17.98
2023-05-15T19:40:27.816Z,7.33
2023-05-15T19:42:57.551Z,7.65
2023-05-15T19:45:27.243Z,11.78
2023-05-15T19:47:57.024Z,11.25
2023-05-15T19:50:27.007Z,8.00
2023-05-15T19:52:57.047Z,10.75
2023-05-15T19:55:26.622Z,11.22
2023-05-15T19:57:57.407Z,6.65
2023-05-15T20:00:27.260Z,8.28
2023-05-15T20:02:57.222Z,12.65
2023-05-15T20:05:26.723Z,10.80
2023-05-15T20:07:56.430Z,8.53
2023-05-15T20:10:26.323Z,7.78
2023-05-15T20:12:56.031Z,6.90
2023-05-15T20:15:25.649Z,5.42
2023-05-15T20:17:55.631Z,8.63
2023-05-15T20:20:25.498Z,6.67
2023-05-15T20:22:55.330Z,6.75
2023-05-15T20:25:24.778Z,13.22
2023-05-15T20:27:55.824Z,9.43
2023-05-15T20:30:25.629Z,13.25
2023-05-15T20:32:55.514Z,8.80
2023-05-15T20:35:26.012Z,8.33
2023-05-15T20:37:56.458Z,8.08
2023-05-15T20:40:28.901Z,10.68
2023-05-15T20:45:27.362Z,8.30
2023-05-15T20:47:57.608Z,9.83
2023-05-15T20:50:27.404Z,9.13
2023-05-15T20:52:56.932Z,9.95
2023-05-15T20:55:26.695Z,6.28
2023-05-15T20:57:56.044Z,8.63
2023-05-15T21:00:25.842Z,8.38
2023-05-15T21:02:55.497Z,10.08
2023-05-15T21:05:25.062Z,9.00
2023-05-15T21:07:54.502Z,8.73
2023-05-15T21:10:24.357Z,9.93
2023-05-15T21:12:55.099Z,7.80
2023-05-15T21:15:25.311Z,5.65
2023-05-15T21:17:54.907Z,8.35
2023-05-15T21:20:24.433Z,9.68
2023-05-15T21:22:54.089Z,6.15
2023-05-15T21:25:23.724Z,11.43
2023-05-15T21:27:53.341Z,10.05
2023-05-15T21:30:22.719Z,10.05
2023-05-15T21:32:52.081Z,7.75
2023-05-15T21:35:21.451Z,11.12
2023-05-15T21:37:50.835Z,16.00
2023-05-15T21:40:20.167Z,10.13
2023-05-15T21:42:49.498Z,8.85
2023-05-15T21:45:19.505Z,5.62
2023-05-15T21:47:48.894Z,6.40
2023-05-15T21:50:18.733Z,9.83
2023-05-15T21:52:49.783Z,6.83
2023-05-15T21:55:19.590Z,9.18
2023-05-15T21:57:48.847Z,8.85
2023-05-15T22:00:18.472Z,9.58
2023-05-15T22:02:47.920Z,9.03
2023-05-15T22:05:18.910Z,11.03
2023-05-15T22:07:48.218Z,13.05
2023-05-15T22:10:17.946Z,10.38
2023-05-15T22:12:47.293Z,9.15
2023-05-15T22:15:16.991Z,9.98
2023-05-15T22:17:46.491Z,6.47
2023-05-15T22:20:17.582Z,11.20
2023-05-15T22:22:46.995Z,11.38
2023-05-15T22:25:16.446Z,7.83
2023-05-15T22:27:45.829Z,7.08
2023-05-15T22:30:15.626Z,8.88
2023-05-15T22:32:45.320Z,7.55
2023-05-15T22:35:14.780Z,11.22
2023-05-15T22:37:45.481Z,10.40
2023-05-15T22:40:15.503Z,7.22
2023-05-15T22:42:44.834Z,9.28
2023-05-15T22:45:14.627Z,10.35
2023-05-15T22:47:44.343Z,7.25
2023-05-15T22:50:14.265Z,17.73
2023-05-15T22:52:43.713Z,8.85
2023-05-15T22:55:13.158Z,9.08
2023-05-15T22:57:43.941Z,9.05
2023-05-15T23:00:14.681Z,6.72
2023-05-15T23:02:44.958Z,9.60
2023-05-15T23:05:14.626Z,10.82
2023-05-15T23:07:43.876Z,6.55
2023-05-15T23:10:13.453Z,8.30
2023-05-15T23:12:43.006Z,11.85
2023-05-15T23:15:12.735Z,8.73
2023-05-15T23:17:42.004Z,8.08
2023-05-15T23:20:13.538Z,11.38
2023-05-15T23:22:42.892Z,8.83
2023-05-15T23:25:12.429Z,6.95
2023-05-15T23:27:41.780Z,10.70
2023-05-15T23:30:11.413Z,7.87
2023-05-15T23:32:40.794Z,9.75
2023-05-15T23:35:10.797Z,9.90
2023-05-15T23:37:40.072Z,6.47
2023-05-15T23:40:10.408Z,10.53
2023-05-15T23:42:39.690Z,10.20
2023-05-15T23:45:10.359Z,17.00
2023-05-15T23:47:40.586Z,9.45
2023-05-15T23:50:10.363Z,13.95
2023-05-15T23:52:39.671Z,12.82
2023-05-15T23:55:09.596Z,4.35
2023-05-15T23:57:39.189Z,7.20
